createdAt,value
2022-11-06T00:00:43.226Z,100902.56
2022-11-06T00:03:30.974Z,100828.97
2022-11-06T00:06:16.180Z,100886.88
2022-11-06T00:09:03.057Z,100876.44
2022-11-06T00:11:50.025Z,100860.97
2022-11-06T00:14:37.682Z,100880.81
2022-11-06T00:17:24.778Z,100866.00
2022-11-06T00:20:11.674Z,100863.28
2022-11-06T00:22:58.660Z,100854.53
2022-11-06T00:25:45.493Z,100782.19
2022-11-06T00:28:33.050Z,100799.41
2022-11-06T00:31:24.747Z,100843.31
2022-11-06T00:34:13.550Z,100846.88
2022-11-06T00:37:00.326Z,100838.97
2022-11-06T00:39:47.245Z,100831.19
2022-11-06T00:42:34.153Z,100832.84
2022-11-06T00:45:21.051Z,100827.69
2022-11-06T00:48:08.678Z,100825.03
2022-11-06T00:50:56.107Z,100791.28
2022-11-06T00:53:43.124Z,100822.50
2022-11-06T00:56:34.201Z,100815.44
2022-11-06T00:59:23.591Z,100805.72
2022-11-06T01:02:10.572Z,100806.66
2022-11-06T01:04:57.697Z,100806.66
2022-11-06T01:07:44.531Z,100728.00
2022-11-06T01:10:31.465Z,100759.81
2022-11-06T01:13:18.299Z,100793.44
2022-11-06T01:16:05.265Z,100789.94
2022-11-06T01:18:52.179Z,100778.47
2022-11-06T01:21:44.777Z,100773.19
2022-11-06T01:24:35.422Z,100762.63
2022-11-06T01:27:26.989Z,100759.09
2022-11-06T01:30:15.483Z,100764.38
2022-11-06T01:33:02.434Z,100754.69
2022-11-06T01:35:49.362Z,100745.91
2022-11-06T01:38:37.219Z,100753.78
2022-11-06T01:41:24.158Z,100745.91
2022-11-06T01:44:12.273Z,100727.69
2022-11-06T01:46:59.177Z,100737.91
2022-11-06T01:49:47.478Z,100730.88
2022-11-06T01:52:36.174Z,100721.16
2022-11-06T01:55:42.831Z,100713.31
2022-11-06T01:58:35.644Z,100711.56
2022-11-06T02:01:23.992Z,100708.81
2022-11-06T02:04:23.890Z,100709.69
2022-11-06T02:07:11.385Z,100710.53
2022-11-06T02:09:58.431Z,100709.69
2022-11-06T02:13:23.576Z,100690.31
2022-11-06T02:16:49.738Z,100692.06
2022-11-06T02:19:59.999Z,100689.41
2022-11-06T02:23:10.971Z,100676.22
2022-11-06T02:26:29.353Z,100680.56
2022-11-06T02:29:22.990Z,100672.63
2022-11-06T02:32:14.689Z,100672.63
2022-11-06T02:35:04.371Z,100642.19
2022-11-06T02:37:56.393Z,100613.88
2022-11-06T02:40:46.225Z,100650.56
2022-11-06T02:43:35.900Z,100650.50
2022-11-06T02:46:57.166Z,100646.09
2022-11-06T02:49:48.443Z,100609.81
2022-11-06T02:52:50.579Z,100632.91
2022-11-06T02:55:43.350Z,100593.97
2022-11-06T02:58:43.619Z,100623.13
2022-11-06T03:01:46.954Z,100617.03
2022-11-06T03:04:43.167Z,100611.88
2022-11-06T03:07:56.987Z,100620.44
2022-11-06T03:10:49.869Z,100623.09
2022-11-06T03:13:53.812Z,100590.00
2022-11-06T03:16:47.868Z,100608.88
2022-11-06T03:19:44.274Z,100604.47
2022-11-06T03:22:51.830Z,100580.13
2022-11-06T03:26:04.025Z,100589.44
2022-11-06T03:28:55.755Z,100578.81
2022-11-06T03:31:54.923Z,100570.31
2022-11-06T03:34:48.863Z,100585.91
2022-11-06T03:37:48.305Z,100582.34
2022-11-06T03:40:39.771Z,100571.72
2022-11-06T03:43:30.884Z,100565.56
2022-11-06T03:46:21.871Z,100564.66
2022-11-06T03:49:24.478Z,100548.81
2022-11-06T03:52:17.208Z,100547.00
2022-11-06T03:55:13.001Z,100543.56
2022-11-06T03:58:06.616Z,100546.09
2022-11-06T04:00:56.412Z,100544.28
2022-11-06T04:03:55.810Z,100543.41
2022-11-06T04:06:48.402Z,100529.31
2022-11-06T04:09:36.922Z,100536.25
2022-11-06T04:12:23.434Z,100538.09
2022-11-06T04:15:15.030Z,100526.59
2022-11-06T04:18:02.233Z,100521.31
2022-11-06T04:20:57.724Z,100522.19
2022-11-06T04:24:04.114Z,100507.25
2022-11-06T04:26:57.172Z,100501.06
2022-11-06T04:30:12.154Z,100503.69
2022-11-06T04:33:04.593Z,100494.91
2022-11-06T04:36:09.978Z,100500.25
2022-11-06T04:39:09.433Z,100489.75
2022-11-06T04:42:18.006Z,100484.50
2022-11-06T04:45:12.155Z,100485.50
2022-11-06T04:47:59.703Z,100478.50
2022-11-06T04:50:50.498Z,100475.84
2022-11-06T04:53:38.983Z,100475.00
2022-11-06T04:56:35.250Z,100467.09
2022-11-06T04:59:26.877Z,100460.06
2022-11-06T05:02:14.132Z,100458.72
2022-11-06T05:05:01.183Z,100472.56
2022-11-06T05:07:47.982Z,100461.13
2022-11-06T05:10:35.265Z,100458.47
2022-11-06T05:13:22.094Z,100463.75
2022-11-06T05:16:09.130Z,100461.13
2022-11-06T05:18:56.394Z,100454.06
2022-11-06T05:21:41.839Z,100453.13
2022-11-06T05:24:28.762Z,100439.91
2022-11-06T05:27:15.631Z,100435.75
2022-11-06T05:30:02.633Z,100436.53
2022-11-06T05:32:49.501Z,100423.31
2022-11-06T05:35:37.348Z,100414.78
2022-11-06T05:38:24.295Z,100419.78
2022-11-06T05:41:11.255Z,100424.19
2022-11-06T05:43:58.141Z,100420.81
2022-11-06T05:46:49.701Z,100416.28
2022-11-06T05:49:38.506Z,100392.13
2022-11-06T05:52:25.386Z,100411.91
2022-11-06T05:55:15.032Z,100337.09
2022-11-06T05:58:03.190Z,100409.28
2022-11-06T06:00:50.054Z,100395.31
2022-11-06T06:03:37.213Z,100403.06
2022-11-06T06:06:24.905Z,100400.34
2022-11-06T06:09:11.966Z,100395.94
2022-11-06T06:11:58.886Z,100395.94
2022-11-06T06:14:50.233Z,100387.09
2022-11-06T06:17:37.506Z,100376.59
2022-11-06T06:20:24.690Z,100378.28
2022-11-06T06:23:15.645Z,100373.88
2022-11-06T06:26:02.629Z,100371.22
2022-11-06T06:28:49.428Z,100347.03
2022-11-06T06:31:36.705Z,100362.38
2022-11-06T06:34:23.530Z,100357.09
2022-11-06T06:37:17.669Z,100290.19
2022-11-06T06:40:06.897Z,100300.28
2022-11-06T06:42:53.888Z,100341.19
2022-11-06T06:45:40.779Z,100337.63
2022-11-06T06:48:27.919Z,100315.97
2022-11-06T06:51:23.728Z,100245.38
2022-11-06T06:54:11.223Z,100319.97
2022-11-06T06:56:58.035Z,100318.28
2022-11-06T06:59:44.922Z,100309.47
2022-11-06T07:02:32.043Z,100309.47
2022-11-06T07:05:19.029Z,100306.75
2022-11-06T07:08:06.206Z,100295.50
2022-11-06T07:10:53.150Z,100299.56
2022-11-06T07:13:40.048Z,100297.81
2022-11-06T07:16:29.488Z,100288.00
2022-11-06T07:19:16.435Z,100288.88
2022-11-06T07:22:03.403Z,100279.09
2022-11-06T07:24:50.250Z,100279.88
2022-11-06T07:27:37.286Z,100272.75
2022-11-06T07:30:24.726Z,100271.81
2022-11-06T07:33:11.781Z,100273.47
2022-11-06T07:35:58.738Z,100272.47
2022-11-06T07:38:45.634Z,100272.31
2022-11-06T07:41:34.814Z,100267.84
2022-11-06T07:44:21.764Z,100266.00
2022-11-06T07:47:08.955Z,100262.34
2022-11-06T07:49:55.947Z,100257.78
2022-11-06T07:52:42.958Z,100256.84
2022-11-06T07:55:29.949Z,100257.50
2022-11-06T07:58:18.415Z,100245.06
2022-11-06T08:01:11.971Z,100230.41
2022-11-06T08:04:02.264Z,100245.66
2022-11-06T08:06:49.101Z,100248.16
2022-11-06T08:09:35.926Z,100240.06
2022-11-06T08:12:22.962Z,100235.53
2022-11-06T08:15:09.910Z,100237.19
2022-11-06T08:17:56.821Z,100228.25
2022-11-06T08:20:43.610Z,100234.25
2022-11-06T08:23:32.862Z,100227.25
2022-11-06T08:26:23.565Z,100225.09
2022-11-06T08:29:10.545Z,100219.59
2022-11-06T08:31:57.329Z,100215.00
2022-11-06T08:34:44.484Z,100206.16
2022-11-06T08:37:31.370Z,100216.44
2022-11-06T08:40:18.247Z,100213.63
2022-11-06T08:43:05.153Z,100219.66
2022-11-06T08:45:52.718Z,100215.03
2022-11-06T08:48:39.771Z,100220.19
2022-11-06T08:51:26.817Z,100212.09
2022-11-06T08:54:13.750Z,100213.69
2022-11-06T08:57:00.703Z,100218.81
2022-11-06T08:59:47.823Z,100208.91
2022-11-06T09:02:35.349Z,100215.00
2022-11-06T09:05:22.675Z,100212.19
2022-11-06T09:08:09.558Z,100213.88
2022-11-06T09:11:01.032Z,100211.97
2022-11-06T09:13:47.919Z,100196.41
2022-11-06T09:16:35.024Z,100211.00
2022-11-06T09:19:21.890Z,100199.38
2022-11-06T09:22:08.854Z,100205.31
2022-11-06T09:25:03.523Z,100200.78
2022-11-06T09:27:57.395Z,100176.81
2022-11-06T09:30:48.594Z,100199.63
2022-11-06T09:33:35.716Z,100189.88
2022-11-06T09:36:26.620Z,100189.78
2022-11-06T09:39:13.475Z,100199.22
2022-11-06T09:42:18.167Z,100193.78
2022-11-06T09:45:17.149Z,100191.91
2022-11-06T09:48:11.298Z,100196.25
2022-11-06T09:51:08.581Z,100185.03
2022-11-06T09:54:06.646Z,100195.16
2022-11-06T09:56:58.208Z,100192.28
2022-11-06T09:59:46.234Z,100107.13
2022-11-06T10:02:47.881Z,100184.16
2022-11-06T10:05:47.374Z,100183.19
2022-11-06T10:08:34.238Z,100188.38
2022-11-06T10:11:36.143Z,100190.00
2022-11-06T10:14:41.532Z,100192.59
2022-11-06T10:17:37.079Z,100195.94
2022-11-06T10:20:36.038Z,100187.91
2022-11-06T10:23:31.302Z,100190.41
2022-11-06T10:26:39.807Z,100198.25
2022-11-06T10:29:45.630Z,100194.59
2022-11-06T10:32:44.238Z,100189.22
2022-11-06T10:35:38.998Z,100189.03
2022-11-06T10:38:40.202Z,100188.88
2022-11-06T10:41:41.303Z,100192.16
2022-11-06T10:44:55.706Z,100191.03
2022-11-06T10:47:47.958Z,100194.41
2022-11-06T10:50:36.550Z,100194.06
2022-11-06T10:53:27.400Z,100190.34
2022-11-06T10:56:34.447Z,100184.78
2022-11-06T10:59:21.719Z,100191.63
2022-11-06T11:02:09.525Z,100188.72
2022-11-06T11:04:58.259Z,100190.31
2022-11-06T11:07:49.577Z,100191.03
2022-11-06T11:11:11.118Z,100191.81
2022-11-06T11:13:58.218Z,100199.50
2022-11-06T11:17:05.824Z,100189.25
2022-11-06T11:19:57.285Z,100192.16
2022-11-06T11:22:44.228Z,100193.88
2022-11-06T11:25:45.401Z,100197.31
2022-11-06T11:28:41.473Z,100200.78
2022-11-06T11:31:32.975Z,100170.84
2022-11-06T11:34:24.366Z,100203.34
2022-11-06T11:37:25.954Z,100211.31
2022-11-06T11:40:13.612Z,100201.56
2022-11-06T11:43:00.615Z,100200.63
2022-11-06T11:45:47.484Z,100212.97
2022-11-06T11:48:34.457Z,100213.81
2022-11-06T11:51:32.564Z,100217.41
2022-11-06T11:54:25.342Z,100213.81
2022-11-06T11:57:40.165Z,100215.63
2022-11-06T12:00:36.230Z,100222.63
2022-11-06T12:03:30.740Z,100213.81
2022-11-06T12:06:32.584Z,100150.47
2022-11-06T12:09:19.778Z,100219.03
2022-11-06T12:12:07.631Z,100186.69
2022-11-06T12:14:56.962Z,100232.28
2022-11-06T12:17:44.253Z,100227.84
2022-11-06T12:20:37.997Z,100228.72
2022-11-06T12:23:36.287Z,100229.53
2022-11-06T12:27:01.719Z,100220.66
2022-11-06T12:30:07.145Z,100224.16
2022-11-06T12:33:06.359Z,100230.34
2022-11-06T12:36:17.788Z,100224.06
2022-11-06T12:39:12.685Z,100228.47
2022-11-06T12:41:43.887Z,100222.19
2022-11-06T12:44:33.683Z,100209.28
2022-11-06T12:47:47.078Z,100217.69
2022-11-06T12:51:02.119Z,100212.28
2022-11-06T12:54:18.866Z,100194.75
2022-11-06T12:57:27.507Z,100223.56
2022-11-06T13:00:36.562Z,100227.09
2022-11-06T13:03:59.661Z,100230.59
2022-11-06T13:07:26.359Z,100225.28
2022-11-06T13:10:25.306Z,100225.22
2022-11-06T13:13:22.386Z,100229.56
2022-11-06T13:16:33.386Z,100226.81
2022-11-06T13:19:53.937Z,100221.53
2022-11-06T13:22:54.273Z,100208.50
2022-11-06T13:25:43.897Z,100214.34
2022-11-06T13:28:36.754Z,100218.69
2022-11-06T13:31:27.761Z,100215.88
2022-11-06T13:34:19.601Z,100207.47
2022-11-06T13:37:07.577Z,100226.31
2022-11-06T13:40:01.330Z,100227.09
2022-11-06T13:42:56.242Z,100233.25
2022-11-06T13:45:44.114Z,100234.97
2022-11-06T13:48:57.711Z,100239.31
2022-11-06T13:52:06.776Z,100246.38
2022-11-06T13:55:19.188Z,100209.38
2022-11-06T13:58:15.495Z,100235.66
2022-11-06T14:01:27.155Z,100237.34
2022-11-06T14:04:39.241Z,100237.28
2022-11-06T14:07:28.565Z,100240.78
2022-11-06T14:10:15.594Z,100228.78
2022-11-06T14:13:06.952Z,100239.84
2022-11-06T14:15:59.546Z,100244.19
2022-11-06T14:18:46.506Z,100238.88
2022-11-06T14:22:01.875Z,100235.75
2022-11-06T14:25:01.292Z,100248.66
2022-11-06T14:27:49.104Z,100250.47
2022-11-06T14:31:11.532Z,100250.47
2022-11-06T14:34:01.021Z,100263.66
2022-11-06T14:36:51.840Z,100251.41
2022-11-06T14:40:16.666Z,100259.47
2022-11-06T14:43:07.763Z,100270.16
2022-11-06T14:45:54.677Z,100269.38
2022-11-06T14:49:06.178Z,100267.78
2022-11-06T14:51:58.142Z,100257.25
2022-11-06T14:54:45.393Z,100264.25
2022-11-06T14:57:36.739Z,100259.72
2022-11-06T15:00:28.424Z,100255.59
2022-11-06T15:03:17.385Z,100269.47
2022-11-06T15:06:04.357Z,100259.03
2022-11-06T15:09:06.387Z,100261.75
2022-11-06T15:11:53.434Z,100263.47
2022-11-06T15:14:40.389Z,100263.47
2022-11-06T15:17:32.684Z,100268.69
2022-11-06T15:20:25.985Z,100270.50
2022-11-06T15:23:31.226Z,100274.88
2022-11-06T15:26:25.001Z,100270.41
2022-11-06T15:29:20.766Z,100281.03
2022-11-06T15:32:11.017Z,100279.13
2022-11-06T15:35:04.955Z,100278.31
2022-11-06T15:37:58.838Z,100171.75
2022-11-06T15:40:53.962Z,100272.13
2022-11-06T15:43:46.033Z,100262.63
2022-11-06T15:46:33.066Z,100269.47
2022-11-06T15:49:49.373Z,100269.47
2022-11-06T15:52:39.215Z,100267.69
2022-11-06T15:55:26.495Z,100274.59
2022-11-06T15:58:14.342Z,100281.69
2022-11-06T16:01:01.755Z,100266.81
2022-11-06T16:04:03.084Z,100263.28
2022-11-06T16:06:51.618Z,100260.56
2022-11-06T16:09:42.396Z,100262.28
2022-11-06T16:12:32.921Z,100271.09
2022-11-06T16:15:20.108Z,100263.28
2022-11-06T16:18:06.982Z,100254.66
2022-11-06T16:20:54.055Z,100264.06
2022-11-06T16:24:03.140Z,100275.66
2022-11-06T16:26:52.759Z,100273.91
2022-11-06T16:29:43.853Z,100280.19
2022-11-06T16:32:38.783Z,100284.53
2022-11-06T16:36:05.286Z,100284.53
2022-11-06T16:39:01.336Z,100293.34
2022-11-06T16:42:17.336Z,100288.91
2022-11-06T16:45:06.219Z,100280.50
2022-11-06T16:47:53.053Z,100298.84
2022-11-06T16:51:04.777Z,100282.91
2022-11-06T16:54:04.229Z,100291.66
2022-11-06T16:56:54.007Z,100282.75
2022-11-06T16:59:45.954Z,100279.13
2022-11-06T17:02:42.803Z,100280.97
2022-11-06T17:05:36.467Z,100185.03
2022-11-06T17:08:39.384Z,100288.75
2022-11-06T17:11:32.376Z,100281.63
2022-11-06T17:14:19.606Z,100279.13
2022-11-06T17:17:13.976Z,100284.19
2022-11-06T17:20:00.844Z,100282.47
2022-11-06T17:22:47.763Z,100291.22
2022-11-06T17:25:34.894Z,100284.97
2022-11-06T17:28:21.662Z,100283.44
2022-11-06T17:31:08.956Z,100293.81
2022-11-06T17:33:55.751Z,100291.31
2022-11-06T17:36:45.734Z,100295.59
2022-11-06T17:39:32.656Z,100286.69
2022-11-06T17:42:19.521Z,100292.84
2022-11-06T17:45:06.413Z,100289.28
2022-11-06T17:47:53.590Z,100290.19
2022-11-06T17:50:40.759Z,100288.41
2022-11-06T17:53:27.609Z,100294.63
2022-11-06T17:56:14.559Z,100287.53
2022-11-06T17:59:01.655Z,100294.59
2022-11-06T18:01:48.724Z,100279.84
2022-11-06T18:04:36.513Z,100291.97
2022-11-06T18:07:23.342Z,100294.81
2022-11-06T18:10:10.419Z,100291.41
2022-11-06T18:12:57.343Z,100294.81
2022-11-06T18:15:44.198Z,100293.09
2022-11-06T18:18:31.108Z,100300.28
2022-11-06T18:21:18.193Z,100297.63
2022-11-06T18:24:05.106Z,100290.53
2022-11-06T18:26:52.498Z,100290.53
2022-11-06T18:29:39.556Z,100288.84
2022-11-06T18:32:26.530Z,100302.09
2022-11-06T18:35:13.402Z,100301.31
2022-11-06T18:38:00.350Z,100293.69
2022-11-06T18:40:51.424Z,100308.34
2022-11-06T18:43:38.939Z,100301.56
2022-11-06T18:49:16.468Z,100312.72
2022-11-06T18:51:43.655Z,100307.50
2022-11-06T18:54:11.676Z,100312.72
2022-11-06T18:56:39.114Z,100323.34
2022-11-06T18:59:08.416Z,100321.53
2022-11-06T19:01:36.294Z,100322.38
2022-11-06T19:04:24.304Z,100318.78
2022-11-06T19:07:11.219Z,100311.06
2022-11-06T19:09:58.307Z,100324.00
2022-11-06T19:12:45.194Z,100331.06
2022-11-06T19:15:32.118Z,100323.91
2022-11-06T19:18:18.982Z,100322.22
2022-11-06T19:21:05.967Z,100324.88
2022-11-06T19:23:53.393Z,100320.53
2022-11-06T19:26:40.339Z,100318.78
2022-11-06T19:29:28.961Z,100317.06
2022-11-06T19:32:16.023Z,100322.47
2022-11-06T19:35:02.885Z,100302.00
2022-11-06T19:37:50.025Z,100315.47
2022-11-06T19:40:36.912Z,100314.50
2022-11-06T19:43:23.984Z,100314.50
2022-11-06T19:46:10.862Z,100318.13
2022-11-06T19:48:57.762Z,100311.00
2022-11-06T19:51:45.566Z,100154.25
2022-11-06T19:54:32.898Z,100305.75
2022-11-06T19:57:29.039Z,100297.81
2022-11-06T20:00:17.081Z,100293.53
2022-11-06T20:03:04.851Z,100296.97
2022-11-06T20:05:32.540Z,100303.19
2022-11-06T20:07:59.606Z,100298.91
2022-11-06T20:10:26.683Z,100298.75
2022-11-06T20:13:13.981Z,100307.66
2022-11-06T20:16:01.313Z,100299.69
2022-11-06T20:18:49.708Z,100302.34
2022-11-06T20:21:36.789Z,100297.88
2022-11-06T20:24:24.067Z,100300.53
2022-11-06T20:27:11.651Z,100296.19
2022-11-06T20:29:58.606Z,100301.56
2022-11-06T20:32:45.687Z,100289.16
2022-11-06T20:35:32.719Z,100285.66
2022-11-06T20:38:19.650Z,100288.31
2022-11-06T20:41:06.672Z,100283.94
2022-11-06T20:43:53.583Z,100280.44
2022-11-06T20:46:41.979Z,100203.41
2022-11-06T20:49:28.916Z,100271.94
2022-11-06T20:52:15.934Z,100262.53
2022-11-06T20:54:59.020Z,100285.03
2022-11-06T20:57:46.024Z,100284.44
2022-11-06T21:00:33.791Z,100290.50
2022-11-06T21:03:22.183Z,100300.25
2022-11-06T21:06:09.679Z,100284.84
2022-11-06T21:08:58.363Z,100294.38
2022-11-06T21:11:47.469Z,100304.13
2022-11-06T21:14:34.602Z,100282.44
2022-11-06T21:17:21.725Z,100306.84
2022-11-06T21:20:08.727Z,100314.91
2022-11-06T21:22:55.699Z,100318.50
2022-11-06T21:25:45.254Z,100323.03
2022-11-06T21:28:32.844Z,100326.78
2022-11-06T21:31:19.955Z,100327.88
2022-11-06T21:34:08.936Z,100334.13
2022-11-06T21:37:02.388Z,100330.59
2022-11-06T21:39:50.045Z,100336.78
2022-11-06T21:42:36.891Z,100325.31
2022-11-06T21:45:24.098Z,100319.31
2022-11-06T21:48:32.533Z,100320.88
2022-11-06T21:51:24.178Z,100319.06
2022-11-06T21:54:10.623Z,100302.09
2022-11-06T21:56:59.009Z,100325.22
2022-11-06T21:59:47.266Z,100309.31
2022-11-06T22:02:34.437Z,100312.91
2022-11-06T22:05:21.503Z,100323.50
2022-11-06T22:08:08.679Z,100323.50
2022-11-06T22:10:55.956Z,100314.78
2022-11-06T22:13:42.898Z,100265.78
2022-11-06T22:16:31.081Z,100302.47
2022-11-06T22:19:19.111Z,100316.66
2022-11-06T22:22:06.124Z,100312.38
2022-11-06T22:24:53.190Z,100329.16
2022-11-06T22:27:41.168Z,100326.81
2022-11-06T22:30:29.134Z,100323.63
2022-11-06T22:33:16.323Z,100312.16
2022-11-06T22:36:03.415Z,100326.03
2022-11-06T22:38:50.413Z,100326.97
2022-11-06T22:41:39.725Z,100327.06
2022-11-06T22:44:27.404Z,100315.59
2022-11-06T22:47:14.666Z,100315.66
2022-11-06T22:50:01.725Z,100316.63
2022-11-06T22:52:48.869Z,100320.19
2022-11-06T22:55:36.188Z,100299.63
2022-11-06T22:58:23.330Z,100316.88
2022-11-06T23:01:11.663Z,100331.13
2022-11-06T23:03:59.737Z,100326.91
2022-11-06T23:06:46.679Z,100338.41
2022-11-06T23:09:34.510Z,100342.91
2022-11-06T23:12:21.471Z,100327.94
2022-11-06T23:15:08.390Z,100323.63
2022-11-06T23:17:56.167Z,100311.41
2022-11-06T23:20:43.129Z,100317.66
2022-11-06T23:23:30.259Z,100319.53
2022-11-06T23:26:17.136Z,100303.38
2022-11-06T23:29:04.833Z,100313.75
2022-11-06T23:31:51.875Z,100307.81
2022-11-06T23:34:38.824Z,100309.63
2022-11-06T23:37:25.955Z,100321.31
2022-11-06T23:40:13.322Z,100312.69
2022-11-06T23:42:40.541Z,100313.59
2022-11-06T23:45:26.385Z,100316.41
2022-11-06T23:47:53.488Z,100318.38
2022-11-06T23:50:20.412Z,100317.66
2022-11-06T23:52:47.238Z,100325.75
2022-11-06T23:55:34.516Z,100325.91
2022-11-06T23:58:21.449Z,100311.53
